Renato Guimarães

Chefscout - Santa Cruz
23 Apr 2028
Sonntag
Verarbeitung

Persönlichkeit

Anpassungsfähigkeit (10) Ehrgeiz (1) Kontroverse (14) Loyalität (18) Druck (4) Professionalität (5) Fairness (13) Temperament (8)

Profil

Trainerstil Demokratisch
Lizenz Nationale A
Entschlossenheit 10
Menschenführung 3
Motivation 6
Disziplin 8
Arbeitszufriedenheit
100%
Ermüdung
0%
Rolle Chefscout
Gehalt 28.9K p/W
Vertrag 14.03.2030

Leistung

Verhalten Gut
Trainingseffektivität
46%
Spielerentwicklung
50%
Verletzungsprävention
55%
Taktische Umsetzung
55%

Letzte Ereignisse

Spieler begutachtet jetzt
Spieler begutachtet jetzt
Nahm an einer Scouting-Besprechung teil jetzt
Spieler begutachtet jetzt
Spieler begutachtet jetzt
Spieler begutachtet jetzt
Spieler begutachtet 7T her
Spieler begutachtet 7T her

Aktuell beobachtet

332
Spieler Verein Status Fähigkeit Vertrauen Beobachtet Zuletzt beobachtet Letzte Stimme
Stephen Humphrys Bradford City Aktiv 119 / 116 40% 8 22.04.2028 -
Jorge Meireles AVS Aktiv 109 / 119 40% 4 22.04.2028 -
Danny Butterworth Accrington Stanley Aktiv 105 / 103 40% 1 22.04.2028 -
Lucas Fernandes Bolton Wanderers Aktiv 113 / 112 40% 2 21.04.2028 -
Chuba Akpom Grimsby Town Aktiv 134 / 134 40% 6 21.04.2028 -
Seidu Basit Ashanti Gold Aktiv 90 / 108 40% 3 21.04.2028 -
Simone Mazzocchi Cosenza Aktiv 118 / 127 40% 1 21.04.2028 -
Ollie O'Neill Leyton Orient Aktiv 115 / 114 40% 1 21.04.2028 -
Calum Kavanagh Oldham Athletic Aktiv 106 / 96 40% 1 19.04.2028 -
Ryan Kavuma-McQueen Accrington Stanley Aktiv 113 / 135 40% 2 18.04.2028 -
Sam Nombe Milton Keynes Dons Aktiv 115 / 106 40% 5 18.04.2028 -
Walid Cheddira Avellino Aktiv 132 / 134 40% 1 18.04.2028 -
Joseph Hungbo Wigan Athletic Aktiv 109 / 120 40% 4 17.04.2028 -
Aly Palacios Lusitânia Lourosa Aktiv 112 / 117 40% 2 17.04.2028 -
Miro Arsenal Tula Aktiv 109 / 110 40% 7 17.04.2028 -
Rui Costa Port Vale Aktiv 118 / 120 40% 1 17.04.2028 -
Luca Vido Union Brescia Aktiv 117 / 118 40% 1 17.04.2028 -
Pablo Ibañez Alavés Aktiv 142 / 130 40% 1 17.04.2028 -
Karlan Grant Tranmere Rovers Aktiv 127 / 137 40% 6 15.04.2028 -
Lucas Wasilewsky Paysandu Aktiv 112 / 116 40% 5 15.04.2028 -
Bradley Fink Wycombe Wanderers Aktiv 120 / 127 40% 2 15.04.2028 -
Neto Moura Mirassol Aktiv 122 / 127 40% 2 14.04.2028 -
Gabriele Gori Ascoli Aktiv 118 / 105 40% 2 14.04.2028 -
Nathan Fraser Chesterfield Aktiv 102 / 96 40% 1 14.04.2028 -
Wandile Duba ASO Chlef Aktiv 104 / 100 40% 5 13.04.2028 -
Miguel Falé Pacos de Ferreira Aktiv 108 / 102 40% 5 13.04.2028 -
Camillo Tavernelli Arezzo Aktiv 120 / 129 40% 4 13.04.2028 -
Renato Kayser Vitória Aktiv 117 / 110 40% 5 11.04.2028 -
Jonathan Okoronkwo Torpedo Moscow Aktiv 117 / 108 40% 4 11.04.2028 -
Diogo Spencer Alverca Aktiv 124 / 126 40% 4 10.04.2028 -
Brenner Santa Clara Aktiv 126 / 111 40% 9 10.04.2028 -
Aaron Collins Milton Keynes Dons Aktiv 128 / 119 40% 3 10.04.2028 -
Marc Baró Leiria Aktiv 110 / 119 40% 3 10.04.2028 -
Fabrizio Cavegn Swindon Town Aktiv 116 / 113 40% 2 10.04.2028 -
Bernat Guiu Virtus Entella Aktiv 128 / 123 40% 1 10.04.2028 -
Igor Neves Paysandu Aktiv 113 / 100 40% 4 08.04.2028 -
Mathys Jean Marie Vis Pesaro Aktiv 107 / 86 40% 2 08.04.2028 -
Carlos Fernández Oviedo Aktiv 123 / 118 40% 2 06.04.2028 -
Matty Stevens AFC Wimbledon Aktiv 114 / 121 40% 1 06.04.2028 -
Toni Tamarit Alverca Aktiv 127 / 127 40% 4 05.04.2028 -
Bismark Asante Ashanti Gold Aktiv 89 / 94 40% 2 04.04.2028 -
Thomas Schlupp BA All Stars Aktiv 105 / 109 40% 3 04.04.2028 -
Ryan Graydon Salford City Aktiv 102 / 101 40% 3 02.04.2028 -
Daniel Karlsbakk Sarpsborg 08 Aktiv 140 / 137 40% 8 02.04.2028 -
Luca Williams-Barnett Walsall Aktiv 128 / 134 40% 4 02.04.2028 -
Víctor Guzmán Sporting CP Aktiv 107 / 95 40% 6 30.03.2028 -
Lautaro Calderón Asante Kotoko Aktiv 101 / 106 40% 1 30.03.2028 -
Freddie Draper Accrington Stanley Aktiv 110 / 128 40% 1 29.03.2028 -
Christian Saydee Wigan Athletic Aktiv 120 / 114 40% 4 26.03.2028 -
Timur Suleimanov Nizhniy Novgorod Aktiv 127 / 126 40% 3 26.03.2028 -
Zé Carlos Gil Vicente Aktiv 123 / 114 40% 4 25.03.2028 -
Amar Memić Viktoria Plzen Aktiv 129 / 128 40% 3 25.03.2028 -
Álvaro Tejero Leganés Aktiv 135 / 136 40% 1 25.03.2028 -
Vinicius Zanocelo Ceará Aktiv 131 / 117 40% 2 24.03.2028 -
Gonçalo Costa Estoril Praia Aktiv 123 / 111 40% 2 24.03.2028 -
Melker Widell Swansea City Aktiv 131 / 135 40% 1 23.03.2028 -
João Caiado Pacos de Ferreira Aktiv 107 / 121 40% 2 22.03.2028 -
Baralhas Vitória Aktiv 128 / 122 40% 2 20.03.2028 -
Matheus Araújo Ceará Aktiv 126 / 114 40% 1 20.03.2028 -
Pedro Marques Apollon Aktiv 125 / 106 40% 1 20.03.2028 -
André Shinyashiki Plymouth Argyle Aktiv 109 / 116 40% 5 18.03.2028 -
Sam Szmodics Ipswich Town Aktiv 137 / 135 40% 1 11.03.2028 -
Harry Leonard Rukh Aktiv 115 / 113 40% 1 10.03.2028 -
Vladislav Sarveli Nizhniy Novgorod Aktiv 109 / 95 40% 1 08.03.2028 -
Johnny Kenny Preston Aktiv 129 / 115 40% 1 08.03.2028 -
Peter Christiansen Haugesund Aktiv 133 / 130 40% 1 08.03.2028 -
Paolo Yrizar Chernomorets Aktiv 101 / 92 40% 1 07.03.2028 -
Kahiser Lenis Ceará Aktiv 121 / 107 40% 5 05.03.2028 -
Olaf Kobacki Sheffield Wednesday Aktiv 111 / 125 40% 2 04.03.2028 -
Harrison Kudus WAFA Aktiv 102 / 100 40% 1 03.03.2028 -
Reyes Cleary Bromley Aktiv 119 / 125 40% 1 02.03.2028 -
Stéphane Diarra Alverca Aktiv 127 / 117 40% 1 02.03.2028 -
Samuel Kalu Botev Plovdiv Aktiv 133 / 122 40% 1 02.03.2028 -
Ifeagwu Ojukwu Asante Kotoko Aktiv 97 / 96 40% 1 01.03.2028 -
Alexey Miranchuk Atlanta United FC Aktiv 139 / 140 40% 2 26.02.2028 -
Sagir Arce Saburtalo Aktiv 111 / 92 40% 1 26.02.2028 -
Yuri Tanque Criciuma Aktiv 119 / 132 40% 4 25.02.2028 -
Indiana Vassilev Philadelphia Union Aktiv 121 / 132 40% 1 25.02.2028 -
Timo Werner San Jose Earthquakes Aktiv 125 / 124 40% 9 24.02.2028 -
Guilherme Houston Dynamo Aktiv 121 / 137 40% 6 21.02.2028 -
Myrto Uzuni Austin FC Aktiv 138 / 117 40% 3 21.02.2028 -
João Klauss LA Galaxy Aktiv 120 / 115 40% 1 15.02.2028 -
Vyacheslav Grulev Nizhniy Novgorod Aktiv 127 / 121 40% 1 14.02.2028 -
Tai Baribo Austin FC Aktiv 132 / 135 40% 2 12.02.2028 -
Joaquín Pereyra Minnesota United FC Aktiv 128 / 142 40% 1 12.02.2028 -
Brandon Vázquez Austin FC Aktiv 130 / 111 40% 2 08.02.2028 -
Xavier Biscayzacú Defensor Sporting Aktiv 129 / 136 40% 5 07.02.2028 -
Jeong Sang-Bin St. Louis CITY SC Aktiv 114 / 127 40% 1 07.02.2028 -
Bruno Larregui Juventud Aktiv 127 / 120 40% 9 17.01.2028 -
Nicolás Retamar Ferro Carril Oeste Aktiv 113 / 110 40% 2 17.01.2028 -
Ramón González Almirante Brown Aktiv 119 / 114 40% 1 17.01.2028 -
Makan Aïko Tondela Aktiv 120 / 120 40% 4 16.01.2028 -
Santiago Vera Almirante Brown Aktiv 119 / 119 40% 2 16.01.2028 -
Franco Zapiola Platense Aktiv 122 / 125 40% 1 16.01.2028 -
Esteban Obregón Montevideo City Torque Aktiv 125 / 115 40% 4 13.01.2028 -
Jonathan Farías Torpedo Kutaisi Aktiv 107 / 114 40% 2 13.01.2028 -
Alejo Cruz Juventud Aktiv 122 / 122 40% 9 13.01.2028 -
Juan David Rueda Alianza Petrolera Aktiv 110 / 118 40% 4 09.01.2028 -
Matheus Vargas Paysandu Aktiv 113 / 111 40% 2 09.01.2028 -
Javier Altamirano Universidad de Chile Aktiv 124 / 116 40% 1 09.01.2028 -
Facundo Batista Penarol Aktiv 122 / 110 40% 1 08.01.2028 -
Jhoao Rodríguez Deportes Quindio Aktiv 110 / 109 40% 5 07.01.2028 -
Brian Farioli Estudiantes Aktiv 120 / 110 40% 2 06.01.2028 -
Bruno Leyes Godoy Cruz Aktiv 124 / 123 40% 1 06.01.2028 -
Fabián Suárez Chalares Aguilas Doradas Aktiv 113 / 111 40% 4 05.01.2028 -
Fernando Martínez Central Córdoba SdE Aktiv 117 / 121 40% 2 05.01.2028 -
Federico Versaci Talleres Aktiv 113 / 111 40% 3 04.01.2028 -
Fernando Ceará Aktiv 120 / 127 40% 1 04.01.2028 -
Jonathan Bamba Chicago Fire Aktiv 143 / 131 40% 3 03.01.2028 -
Alex Luna Instituto Aktiv 127 / 136 40% 1 03.01.2028 -
Santiago Sala Güemes Aktiv 110 / 110 40% 6 01.12.2027 -
Lucas Cano All Boys Aktiv 114 / 104 40% 2 01.12.2027 -
Jhonatan Candia Barracas Central Aktiv 128 / 120 40% 2 30.11.2027 -
Joel Orlando Almagro Aktiv 117 / 117 40% 2 28.11.2027 -
Juan Mendoza Güemes Aktiv 107 / 108 40% 1 28.11.2027 -
Juan Esteban Ávalo Aguilas Doradas Aktiv 114 / 111 40% 3 27.11.2027 -
Horacio Tijanovich Central Córdoba SdE Aktiv 113 / 120 40% 2 27.11.2027 -
Renzo Reynaga Patronato Aktiv 115 / 111 40% 3 24.11.2027 -
Matías Vargas Gimnasia y Esgrima Aktiv 130 / 126 40% 2 24.11.2027 -
Juan Sebastián Herrera Deportivo La Guaira Aktiv 116 / 110 40% 2 23.11.2027 -
Augusto Berrondo Tristán Suárez Aktiv 106 / 112 40% 5 23.11.2027 -
Imran Oulad Omar Dinamo Batumi Aktiv 131 / 136 40% 2 23.11.2027 -
Rodrigo Pollero Deportivo Tachira Aktiv 109 / 109 40% 1 23.11.2027 -
Gastón Moreyra Almirante Brown Aktiv 113 / 120 40% 1 23.11.2027 -
Sunday Megwo Abia Warriors Aktiv 98 / 97 40% 7 21.11.2027 -
Jonathan Cañete Portuguesa Aktiv 110 / 116 40% 4 21.11.2027 -
Rodrigo Bogarín Barracas Central Aktiv 119 / 119 40% 1 21.11.2027 -
José Barreto Quilmes Aktiv 121 / 117 40% 6 20.11.2027 -
Hirving Lozano San Diego Football Club Aktiv 130 / 126 40% 5 20.11.2027 -
Ryan Gauld Vancouver Whitecaps Aktiv 141 / 144 40% 1 20.11.2027 -
Maclyn Biokpo Jenewari Rivers United Aktiv 103 / 100 40% 4 17.11.2027 -
Alejandro Rincon Llaneros Aktiv 102 / 99 40% 4 16.11.2027 -
Ivo Costantino River Plate Aktiv 114 / 106 40% 2 16.11.2027 -
César Magallan Estudiantes de Merida Aktiv 116 / 101 40% 2 16.11.2027 -
Facundo Castelli Estudiantes Aktiv 120 / 118 40% 2 14.11.2027 -
Fernando Bersano Madryn Aktiv 114 / 111 40% 2 13.11.2027 -
Facundo Krüger Temperley Aktiv 120 / 109 40% 3 13.11.2027 -
Enzo Martínez Almagro Aktiv 106 / 102 40% 2 11.11.2027 -
Pep Biel Charlotte Football Club Aktiv 141 / 118 40% 6 11.11.2027 -
Emiliano Saliadarre Miramar Misiones Aktiv 115 / 119 40% 1 11.11.2027 -
Lisandro Cabrera Maipú Aktiv 119 / 119 40% 4 09.11.2027 -
Leandro Suhr Boston River Aktiv 122 / 110 40% 1 09.11.2027 -
Marco Miori Alvarado Aktiv 105 / 112 40% 1 08.11.2027 -
Luca Franco Arsenal Aktiv 106 / 111 40% 4 07.11.2027 -
Alan Bonansea Colón Aktiv 116 / 105 40% 3 06.11.2027 -
Sergio González Racing Aktiv 111 / 117 40% 3 06.11.2027 -
Lautaro Disanto Defensores Unidos Aktiv 111 / 120 40% 1 06.11.2027 -
José Balza Deportivo Tachira Aktiv 116 / 113 40% 2 04.11.2027 -
Favio Cabral Mitre Aktiv 123 / 122 40% 6 03.11.2027 -
Lautaro Gordillo Colegiales Aktiv 114 / 104 40% 1 30.10.2027 -
Marcelo Torres Gimnasia La Plata Aktiv 113 / 118 40% 1 28.10.2027 -
Paul Samson Plateau United Aktiv 108 / 105 40% 1 27.10.2027 -
Santiago Rodríguez Gimnasia y Esgrima Aktiv 121 / 117 40% 3 26.10.2027 -
Sebastián Cocimano Nueva Chicago Aktiv 110 / 116 40% 3 24.10.2027 -
Tomás Fernández Aldosivi Aktiv 117 / 122 40% 1 23.10.2027 -
Jonás Acevedo Instituto Aktiv 126 / 121 40% 1 21.10.2027 -
Fernando Mimbacas Juventud Aktiv 118 / 108 40% 4 20.10.2027 -
Johan Campaña Patriotas Aktiv 107 / 112 40% 2 20.10.2027 -
Jonás Luna Wanderers Aktiv 123 / 120 40% 1 18.10.2027 -
Mauricio Márquez Caracas Aktiv 107 / 97 40% 2 16.10.2027 -
Matías Rosales Sarmiento Aktiv 117 / 116 40% 1 16.10.2027 -
Alejo Dramisino Atlanta Aktiv 117 / 111 40% 2 14.10.2027 -
Cristian Barros Cerro Aktiv 107 / 114 40% 3 14.10.2027 -
Adalberto Peñaranda Deportivo Tachira Aktiv 123 / 115 40% 1 14.10.2027 -
Manuel Mónaco Sarmiento Aktiv 123 / 117 40% 1 14.10.2027 -
Matías Viguet Maipú Aktiv 114 / 115 40% 1 10.10.2027 -
Timothy Zechariah Rivers United Aktiv 92 / 107 40% 3 09.10.2027 -
Agustín Alaniz Rentistas Aktiv 111 / 112 40% 1 06.10.2027 -
Patricio Moyano Defensores Aktiv 119 / 127 40% 3 05.10.2027 -
Samuel Anakwe Remo Stars Aktiv 92 / 96 40% 1 30.09.2027 -
Germán Cervera Alvarado Aktiv 100 / 102 40% 1 23.09.2027 -
Rodrigo González Mitre Aktiv 117 / 123 40% 2 19.09.2027 -
Tomás Bolzicco Chaco For Ever Aktiv 110 / 96 40% 1 19.09.2027 -
Brian González Atenas Aktiv 100 / 106 40% 1 15.09.2027 -
Francisco Bonfiglio Boston River Aktiv 117 / 112 40% 1 14.09.2027 -
Franco Vedoya Central Norte Aktiv 117 / 118 40% 1 12.09.2027 -
Daniel Barrea Godoy Cruz Aktiv 124 / 116 40% 2 10.09.2027 -
Franco Ayunta Temperley Aktiv 107 / 105 40% 1 06.09.2027 -
Aaron Drinan Swindon Town Aktiv 116 / 100 40% 1 20.07.2027 -
Aaron Morley Wycombe Wanderers Aktiv 120 / 125 40% 1 20.07.2027 -
Ettore Gliozzi Mantova Aktiv 109 / 118 40% 1 14.06.2027 -
Juan Bezerra Zamalek Aktiv 109 / 118 40% 2 30.05.2027 -
Ethan Williams Peterborough United Aktiv 105 / 107 40% 1 30.05.2027 -
Samuel Justo Sporting CP Aktiv 123 / 116 40% 2 29.05.2027 -
Salvador Blopá Sporting CP Aktiv 123 / 126 40% 3 29.05.2027 -
Darragh Burns Grimsby Town Aktiv 104 / 103 40% 5 28.05.2027 -
Paddy Lane Reading Aktiv 103 / 120 40% 1 28.05.2027 -
Jack MacKenzie Plymouth Argyle Aktiv 110 / 108 40% 1 28.05.2027 -
Idris Kanu Barnet Aktiv 97 / 108 40% 3 27.05.2027 -
Leighton Clarkson Blackpool Aktiv 112 / 128 40% 2 26.05.2027 -
Marcus Ifill Crewe Alexandra Aktiv 117 / 112 40% 1 26.05.2027 -
Xavier Amaechi Plymouth Argyle Aktiv 113 / 107 40% 4 22.05.2027 -
George Hall Port Vale Aktiv 122 / 114 40% 2 22.05.2027 -
Declan Frith Peterborough United Aktiv 108 / 98 40% 4 19.05.2027 -
Caylan Vickers Burton Albion Aktiv 102 / 102 40% 1 19.05.2027 -
Armando Dobra Chesterfield Aktiv 112 / 102 40% 1 17.05.2027 -
Phoenix Patterson Stevenage Aktiv 113 / 108 40% 1 17.05.2027 -
Jack Moylan Lincoln City Aktiv 119 / 106 40% 1 17.05.2027 -
Mohamadou Kanté Crawley Town Aktiv 120 / 128 40% 2 15.05.2027 -
Ra'ees Bangura-Williams Millwall Aktiv 119 / 124 40% 1 13.05.2027 -
Eduardo Fernandes Benfica Aktiv 109 / 122 40% 3 08.05.2027 -
Giorgos Koutsias Famalicao Aktiv 128 / 127 40% 4 07.05.2027 -
Malcolm Ebiowei Gillingham Aktiv 111 / 111 40% 2 06.05.2027 -
André Miranda Porto Aktiv 89 / 105 40% 1 05.05.2027 -
Bali Mumba Huddersfield Town Aktiv 107 / 103 40% 1 02.05.2027 -
Ar'jany Martha Rotherham United Aktiv 116 / 118 40% 2 29.04.2027 -
Davide Bragantini Mantova Aktiv 119 / 129 40% 1 29.04.2027 -
Chem Campbell Stevenage Aktiv 114 / 113 40% 1 27.04.2027 -
Charlie Webster Burton Albion Aktiv 102 / 120 40% 1 26.04.2027 -
Xavier Simons Bolton Wanderers Aktiv 123 / 118 40% 1 24.04.2027 -
Peter Federico Gornik Zabrze Aktiv 120 / 117 40% 4 21.04.2027 -
Calum Agius Crewe Alexandra Aktiv 88 / 108 40% 1 21.04.2027 -
Tiago Freitas Benfica Aktiv 100 / 119 40% 1 18.04.2027 -
Kyreece Lisbie Colchester United Aktiv 109 / 97 40% 1 17.04.2027 -
Ilyas Ansah Hull City Aktiv 135 / 128 40% 2 13.04.2027 -
Daniel Kyerewaa Reading Aktiv 123 / 102 40% 1 13.04.2027 -
Cian Ashford Cardiff City Aktiv 123 / 120 40% 1 13.04.2027 -
Bobby Clark Derby County Aktiv 116 / 115 40% 3 11.04.2027 -
Sam Greenwood Bristol City Aktiv 126 / 112 40% 2 11.04.2027 -
Tony Springett Cheltenham Town Aktiv 97 / 98 40% 3 10.04.2027 -
Dale Taylor Blackpool Aktiv 116 / 110 40% 2 10.04.2027 -
Alex Robertson Cardiff City Aktiv 118 / 114 40% 2 09.04.2027 -
Sam Bell Bristol City Aktiv 129 / 111 40% 1 09.04.2027 -
Jackson Muleka Konyaspor Aktiv 129 / 126 40% 3 08.04.2027 -
Tyreece Campbell Charlton Athletic Aktiv 127 / 124 40% 1 08.04.2027 -
Oliver Skipp Leicester City Aktiv 124 / 134 40% 1 08.04.2027 -
Tyler Goodrham Oxford United Aktiv 126 / 115 40% 1 07.04.2027 -
Derensili Sanches Fernandes Huddersfield Town Aktiv 136 / 136 40% 2 04.04.2027 -
Stephen Amankona Aduana Stars Aktiv 96 / 104 40% 1 03.04.2027 -
Andre Brooks Sheffield United Aktiv 127 / 140 40% 1 30.03.2027 -
Joel Bagan Cardiff City Aktiv 113 / 125 40% 1 30.03.2027 -
Santi García Gil Vicente Aktiv 141 / 132 40% 10 26.03.2027 -
Daniel Júnior Nacional Aktiv 126 / 108 40% 5 26.03.2027 -
Vinícius Lopes Santa Clara Aktiv 117 / 113 40% 7 26.03.2027 -
Jordan Holsgrove Estoril Praia Aktiv 136 / 136 40% 6 24.03.2027 -
Ricard Sánchez Estoril Praia Aktiv 114 / 109 40% 3 23.03.2027 -
Pedro Pelágio Chaves Aktiv 121 / 97 40% 1 23.03.2027 -
Simo Maritimo Aktiv 110 / 122 40% 7 21.03.2027 -
Luccas Paraízo Leixões Aktiv 114 / 100 40% 1 21.03.2027 -
Isaiah Jones Luton Town Aktiv 130 / 132 40% 2 18.03.2027 -
Ole Pohlmann Rio Ave Aktiv 114 / 120 40% 2 18.03.2027 -
Rodrigo Pinheiro Famalicao Aktiv 140 / 131 40% 4 17.03.2027 -
Olívio Tomé Benfica Aktiv 112 / 119 40% 2 17.03.2027 -
Martín Tejón Maritimo Aktiv 119 / 126 40% 1 17.03.2027 -
Facundo Cáseres Gil Vicente Aktiv 117 / 114 40% 6 16.03.2027 -
Rafik Guitane Estoril Praia Aktiv 134 / 134 40% 7 16.03.2027 -
Juan María Alcedo Torreense Aktiv 114 / 109 40% 4 13.03.2027 -
João Teixeira Porto Aktiv 97 / 104 40% 1 13.03.2027 -
Yanis Begraoui Estoril Praia Aktiv 137 / 133 40% 12 12.03.2027 -
Alfonso Trezza Arouca Aktiv 121 / 135 40% 3 11.03.2027 -
Mathias De Amorim Famalicao Aktiv 122 / 125 40% 3 11.03.2027 -
Malik Sellouki Rio Ave Aktiv 118 / 120 40% 7 10.03.2027 -
Sorriso Famalicao Aktiv 131 / 130 40% 8 09.03.2027 -
Lee Hyun-Ju Arouca Aktiv 115 / 116 40% 7 06.03.2027 -
Tiago Ribeiro Oliveirense Aktiv 99 / 108 40% 1 06.03.2027 -
Miguel Reisinho Feirense Aktiv 118 / 124 40% 4 02.03.2027 -
Rodrigo Ramos Feirense Aktiv 109 / 130 40% 1 02.03.2027 -
Luis Quintero Torreense Aktiv 113 / 136 40% 3 28.02.2027 -
Ilias Sebaoui Sint-Truiden Aktiv 120 / 130 40% 3 28.02.2027 -
Lorougnon Gohi Académico de Viseu Aktiv 121 / 111 40% 6 26.02.2027 -
Nabil Touaizi Alverca Aktiv 121 / 118 40% 3 26.02.2027 -
Miguel Baeza Nacional Aktiv 122 / 125 40% 4 25.02.2027 -
Manu Pozo Torreense Aktiv 113 / 132 40% 7 25.02.2027 -
Vitinho Santa Clara Aktiv 120 / 114 40% 2 24.02.2027 -
Lovro Zvonarek Estrela da Amadora Aktiv 121 / 117 40% 3 23.02.2027 -
Tyrese Campbell Sheffield United Aktiv 132 / 113 40% 1 19.02.2027 -
Joe Hodge Tondela Aktiv 125 / 119 40% 1 16.02.2027 -
Justo Giani Umraniyespor Aktiv 122 / 122 40% 2 12.02.2027 -
Jason Knight Bristol City Aktiv 121 / 124 40% 1 10.02.2027 -
Matías Lacava Vizela Aktiv 118 / 105 40% 1 31.01.2027 -
Marley Aké Zulte Waregem Aktiv 114 / 109 40% 1 27.01.2027 -
Alessio Zerbin Frosinone Aktiv 136 / 117 40% 1 27.01.2027 -
Matchoi Djaló Nacional Aktiv 103 / 112 40% 1 26.01.2027 -
Weverson Gil Vicente Aktiv 115 / 126 40% 1 26.01.2027 -
Bernardes Benfica Aktiv 108 / 109 40% 1 26.01.2027 -
Ezequiel Bullaude Santos Laguna Aktiv 131 / 123 40% 1 18.01.2027 -
Matheus Dias Nacional Aktiv 111 / 128 40% 2 16.01.2027 -
Figueiredo Alverca Aktiv 120 / 120 40% 2 16.01.2027 -
Tiago Leite Felgueiras Aktiv 102 / 94 40% 1 12.01.2027 -
Malik Mothersille Stockport County Aktiv 124 / 115 40% 1 10.01.2027 -
Tristan Degreef Anderlecht Aktiv 130 / 137 40% 1 07.01.2027 -
Max Johnston Derby County Aktiv 130 / 114 40% 1 05.01.2027 -
Abraham Marcus Estrela da Amadora Aktiv 122 / 127 40% 7 04.01.2027 -
Zé Leite Moreirense Aktiv 117 / 109 40% 2 28.11.2026 -
Pablo Rosario Porto Aktiv 141 / 152 40% 2 28.11.2026 -
Luís Esteves Atlas Aktiv 138 / 131 40% 4 24.11.2026 -
Efrain Dos Santos Veracruz Aktiv 133 / 132 40% 2 24.11.2026 -
Tiago Parente Estoril Praia Aktiv 105 / 100 40% 1 24.11.2026 -
Maga Leiria Aktiv 112 / 121 40% 1 23.11.2026 -
Valery Académico de Viseu Aktiv 122 / 122 40% 3 21.11.2026 -
Cristian Ferreira Académico de Viseu Aktiv 112 / 115 40% 3 21.11.2026 -
Ianis Stoica Estrela da Amadora Aktiv 111 / 124 40% 1 19.11.2026 -
Maxime Dominguez Maritimo Aktiv 119 / 138 40% 5 18.11.2026 -
Jordan van der Gaag Leiria Aktiv 106 / 97 40% 1 18.11.2026 -
Marios Vrousai Rio Ave Aktiv 120 / 112 40% 3 17.11.2026 -
Tiago Esgaio Arouca Aktiv 133 / 115 40% 1 17.11.2026 -
Léo Teixeira Felgueiras Aktiv 96 / 105 40% 1 16.11.2026 -
Pedro Maranhão Tondela Aktiv 109 / 108 40% 2 15.11.2026 -
Tidjany Touré Gil Vicente Aktiv 107 / 130 40% 1 15.11.2026 -
Kevin Velasco Puebla Aktiv 109 / 105 40% 3 12.11.2026 -
Jérémy Livolant Casa Pia Aktiv 131 / 117 40% 4 07.11.2026 -
Chiheb Labidi Nacional Aktiv 122 / 105 40% 1 07.11.2026 -
Juan Muñoz Leiria Aktiv 117 / 128 40% 3 04.11.2026 -
Pablo Fernández Leiria Aktiv 117 / 106 40% 1 02.11.2026 -
Max Scholze Estrela da Amadora Aktiv 109 / 122 40% 1 31.10.2026 -
Xeka Estoril Praia Aktiv 136 / 133 40% 2 29.10.2026 -
Francisco Herrera Veracruz Aktiv 114 / 135 40% 1 27.10.2026 -
Taichi Fukui Arouca Aktiv 129 / 139 40% 1 26.10.2026 -
Reko Leiria Aktiv 105 / 121 40% 1 23.10.2026 -
Dinis Pinto Moreirense Aktiv 128 / 130 40% 1 19.10.2026 -
João Carvalho Estoril Praia Aktiv 122 / 135 40% 2 18.10.2026 -
Mateja Stjepanović Moreirense Aktiv 129 / 133 40% 1 08.10.2026 -
Matheuzinho Vitória Aktiv 126 / 131 40% 1 30.09.2026 -
Alejandro Piedrahita Deportivo Pereira Aktiv 119 / 128 40% 1 07.09.2026 -
Tiago Dias Lusitânia Lourosa Aktiv 106 / 102 40% 1 04.09.2026 -
Korede Osundina Casa Pia Aktiv 112 / 106 40% 1 04.09.2026 -
Kiko Bondoso Moreirense Aktiv 133 / 123 40% 1 30.08.2026 -
Lawrence Ofori Casa Pia Aktiv 127 / 111 40% 1 24.08.2026 -
Gianluca Prestianni Benfica Aktiv 132 / 144 40% 1 23.08.2026 -
Francisco Moura Porto Aktiv 145 / 144 40% 2 22.08.2026 -
Rony Lopes Tondela Aktiv 107 / 122 40% 1 22.08.2026 -
Denis Huseinbašić Braga Aktiv 129 / 117 40% 1 22.08.2026 -
Liziero Nacional Aktiv 123 / 134 40% 1 21.08.2026 -
Andre Green AVS Aktiv 112 / 110 40% 1 17.08.2026 -
Tom van de Looi Famalicao Aktiv 118 / 129 40% 3 08.08.2026 -
Luís Guilherme Sporting CP Aktiv 120 / 132 40% 1 08.08.2026 -
Rafael Barbosa Felgueiras Aktiv 122 / 95 40% 1 04.08.2026 -
Miguel Tavares Vizela Aktiv 101 / 108 40% 1 04.08.2026 -
Alan RB Leipzig Aktiv 139 / 114 40% 1 03.08.2026 -
Zaidu Sanusi Porto Aktiv 126 / 135 40% 1 03.08.2026 -
Demir Ege Tıknaz Braga Aktiv 130 / 119 40% 1 01.08.2026 -
Víctor Gómez Braga Aktiv 125 / 140 40% 1 01.08.2026 -